Time;durP1;ratioP1;P1;durP2;ratioP2;P2;SDS_P1;SDS_P2;PMS_P1;PMS_P2;Temp;Humidity;BMP_temperature;BMP_pressure;BME280_temperature;BME280_humidity;BME280_pressure;Samples;Min_cycle;Max_cycle;Signal;HPM_P1;HPM_P2
2023/06/14 00:01:45;;;;;;;7.40;5.53;;;;;;;18.54;34.74;95720.56;4988458;28;20201;-71
2023/06/14 00:04:11;;;;;;;5.80;5.20;;;;;;;18.48;34.66;95723.75;4986901;28;20678;-72
2023/06/14 00:06:36;;;;;;;8.77;5.87;;;;;;;18.45;35.02;95721.34;4988030;28;20447;-73
2023/06/14 00:09:01;;;;;;;6.43;5.47;;;;;;;18.55;34.79;95715.13;4987864;28;20169;-70
2023/06/14 00:11:27;;;;;;;10.57;5.20;;;;;;;18.57;34.37;95720.31;4987986;28;20227;-73
2023/06/14 00:13:52;;;;;;;9.00;5.07;;;;;;;18.61;34.02;95719.91;4991963;28;20202;-72
2023/06/14 00:16:19;;;;;;;6.93;5.00;;;;;;;18.51;34.44;95724.31;4991822;28;20619;-72
2023/06/14 00:18:45;;;;;;;20.87;6.40;;;;;;;18.39;34.39;95726.22;4993924;28;20215;-73
2023/06/14 00:21:12;;;;;;;21.57;6.10;;;;;;;18.33;34.96;95728.56;4991957;28;20444;-72
2023/06/14 00:23:37;;;;;;;8.60;4.90;;;;;;;18.38;34.72;95723.72;4989331;28;20412;-71
2023/06/14 00:26:03;;;;;;;8.00;5.70;;;;;;;18.37;34.48;95724.66;4988808;28;20416;-72
2023/06/14 00:28:28;;;;;;;8.60;5.30;;;;;;;18.33;34.43;95724.09;4989046;28;20161;-73
2023/06/14 00:30:53;;;;;;;5.43;4.93;;;;;;;18.40;34.34;95730.56;4988945;28;20858;-69
2023/06/14 00:33:19;;;;;;;5.40;4.87;;;;;;;18.54;34.31;95724.06;4987778;28;20234;-72
2023/06/14 00:35:44;;;;;;;35.67;8.77;;;;;;;18.37;34.52;95736.13;4987438;28;20183;-72
2023/06/14 00:38:10;;;;;;;6.27;5.60;;;;;;;18.45;34.32;95719.56;4987393;28;20287;-72
2023/06/14 00:40:35;;;;;;;18.27;5.90;;;;;;;18.38;34.33;95737.00;4987267;28;20230;-73
2023/06/14 00:43:00;;;;;;;13.03;5.53;;;;;;;18.31;34.26;95720.72;4987290;28;20165;-72
2023/06/14 00:45:26;;;;;;;8.20;5.63;;;;;;;18.13;34.51;95722.31;4987079;28;20169;-72
2023/06/14 00:47:55;;;;;;;9.90;5.90;;;;;;;18.24;34.84;95724.06;4987417;28;20303;-71
2023/06/14 00:50:21;;;;;;;7.83;5.73;;;;;;;18.14;34.68;95723.97;4987435;28;20196;-74
2023/06/14 00:52:47;;;;;;;7.50;5.90;;;;;;;18.15;34.58;95723.00;4987515;28;20877;-72
2023/06/14 00:55:12;;;;;;;10.43;5.77;;;;;;;18.16;34.57;95722.88;4987020;28;20575;-71
2023/06/14 00:57:39;;;;;;;13.00;6.47;;;;;;;18.05;34.71;95722.09;4987536;28;20326;-71
2023/06/14 01:00:08;;;;;;;11.60;6.30;;;;;;;18.16;34.94;95725.53;4987688;28;20196;-72
2023/06/14 01:02:37;;;;;;;5.90;5.30;;;;;;;18.03;34.56;95726.72;4987523;28;20602;-73
2023/06/14 01:05:03;;;;;;;11.30;6.00;;;;;;;18.07;34.60;95730.78;4986846;28;20487;-71
2023/06/14 01:07:29;;;;;;;8.03;5.53;;;;;;;18.02;34.63;95733.81;4987222;28;20506;-72
2023/06/14 01:10:21;;;;;;;6.07;5.17;;;;;;;17.99;34.97;95723.47;4986641;28;20208;-71
2023/06/14 01:13:13;;;;;;;10.97;5.87;;;;;;;18.10;34.50;95719.91;4987082;28;20180;-73
2023/06/14 01:15:40;;;;;;;6.23;5.43;;;;;;;18.23;34.53;95728.50;4986860;28;20937;-71
2023/06/14 01:18:06;;;;;;;8.43;5.70;;;;;;;18.14;34.34;95726.63;4986900;28;20462;-71
2023/06/14 01:20:36;;;;;;;16.70;6.40;;;;;;;18.08;34.41;95721.84;4986865;28;20434;-71
2023/06/14 01:23:02;;;;;;;9.23;6.10;;;;;;;18.14;34.91;95721.31;4986743;28;20431;-70
2023/06/14 01:25:28;;;;;;;16.63;7.40;;;;;;;18.01;34.16;95723.34;4987156;28;20412;-71
2023/06/14 01:27:58;;;;;;;13.70;5.30;;;;;;;18.02;34.64;95730.31;4987060;28;20169;-71
2023/06/14 01:30:27;;;;;;;10.87;6.83;;;;;;;17.83;35.31;95723.91;4987033;28;20419;-70
2023/06/14 01:32:54;;;;;;;7.37;4.87;;;;;;;17.87;35.35;95716.53;4986831;28;20518;-72
2023/06/14 01:35:20;;;;;;;19.70;6.70;;;;;;;17.72;35.54;95723.94;4986652;28;20432;-73
2023/06/14 01:37:48;;;;;;;10.03;6.40;;;;;;;17.86;35.15;95720.16;4987176;28;21024;-71
2023/06/14 01:40:15;;;;;;;10.50;6.10;;;;;;;17.71;35.53;95719.59;4987282;28;20197;-71
2023/06/14 01:42:42;;;;;;;11.10;6.03;;;;;;;17.74;35.95;95725.50;4987134;28;20416;-72
2023/06/14 01:45:10;;;;;;;13.73;5.70;;;;;;;17.81;35.65;95714.38;4986769;28;20404;-69
2023/06/14 01:47:36;;;;;;;23.00;7.50;;;;;;;17.68;35.71;95714.53;4986729;28;20416;-72
2023/06/14 01:50:02;;;;;;;12.20;5.97;;;;;;;17.64;36.09;95718.41;4985055;28;20443;-71
2023/06/14 01:52:28;;;;;;;9.23;6.20;;;;;;;17.80;35.65;95718.81;4986580;28;20856;-69
2023/06/14 01:54:53;;;;;;;7.60;5.40;;;;;;;17.77;35.47;95711.97;4986327;28;20504;-70
2023/06/14 01:57:18;;;;;;;11.10;5.93;;;;;;;17.64;35.97;95716.59;4986477;28;20535;-71
2023/06/14 01:59:48;;;;;;;6.93;5.30;;;;;;;17.58;36.49;95711.81;4986728;28;20250;-71
2023/06/14 02:02:14;;;;;;;6.80;5.40;;;;;;;17.48;36.91;95716.19;4986824;28;20228;-71
2023/06/14 02:04:39;;;;;;;7.03;5.53;;;;;;;17.51;36.14;95713.28;4986330;28;20420;-72
2023/06/14 02:07:04;;;;;;;14.43;6.13;;;;;;;17.35;36.84;95717.19;4986411;28;20478;-72
2023/06/14 02:09:30;;;;;;;14.97;6.33;;;;;;;17.39;36.23;95719.63;4986415;28;20165;-70
2023/06/14 02:11:55;;;;;;;17.63;6.70;;;;;;;17.46;36.50;95718.97;4986732;28;20177;-73
2023/06/14 02:14:21;;;;;;;18.80;6.67;;;;;;;17.48;36.07;95713.53;4986305;28;20513;-71
2023/06/14 02:16:48;;;;;;;5.50;5.00;;;;;;;17.58;36.04;95717.13;4986601;28;20164;-72
2023/06/14 02:19:17;;;;;;;6.10;5.50;;;;;;;17.46;36.35;95716.31;4985467;28;20610;-71
2023/06/14 02:21:43;;;;;;;5.80;5.20;;;;;;;17.46;36.23;95713.69;4986765;28;20444;-70
2023/06/14 02:24:08;;;;;;;6.90;5.60;;;;;;;17.44;36.20;95715.59;4991123;28;20502;-74
2023/06/14 02:26:34;;;;;;;13.23;6.30;;;;;;;17.43;35.89;95711.25;4989105;28;20184;-72
2023/06/14 02:28:59;;;;;;;37.13;9.60;;;;;;;17.37;36.01;95711.78;4989530;28;20177;-71
2023/06/14 02:31:26;;;;;;;21.27;6.37;;;;;;;17.38;36.59;95717.91;4989824;28;20193;-71
2023/06/14 02:33:51;;;;;;;18.53;6.43;;;;;;;17.34;35.94;95717.34;4989296;28;20177;-71
2023/06/14 02:36:16;;;;;;;36.13;8.10;;;;;;;17.51;35.81;95714.13;4989461;28;20408;-72
2023/06/14 02:38:42;;;;;;;36.97;7.63;;;;;;;17.39;35.83;95723.09;4989639;28;20247;-73
2023/06/14 02:41:07;;;;;;;33.77;9.97;;;;;;;17.33;35.70;95719.13;4989539;28;20251;-71
2023/06/14 02:43:32;;;;;;;19.13;7.27;;;;;;;17.35;35.99;95726.97;4989168;28;20557;-73
2023/06/14 02:45:58;;;;;;;13.47;6.27;;;;;;;17.46;35.57;95716.31;4989453;28;20262;-71
2023/06/14 02:48:23;;;;;;;39.23;7.93;;;;;;;17.35;35.94;95711.88;4989693;28;20537;-71
2023/06/14 02:50:48;;;;;;;24.83;7.00;;;;;;;17.38;35.69;95721.41;4989520;28;20199;-71
2023/06/14 02:53:14;;;;;;;38.87;9.00;;;;;;;17.32;35.75;95720.09;4989294;28;20200;-73
2023/06/14 02:55:40;;;;;;;22.20;6.83;;;;;;;17.29;36.08;95716.84;4989623;28;20958;-72
2023/06/14 02:58:06;;;;;;;49.90;9.53;;;;;;;17.31;35.91;95720.22;4988247;28;20196;-73
2023/06/14 03:00:31;;;;;;;26.60;6.93;;;;;;;17.35;35.95;95721.66;4989752;28;20193;-70
2023/06/14 03:02:56;;;;;;;42.03;10.53;;;;;;;17.40;36.11;95716.81;4989531;28;20658;-71
2023/06/14 03:05:22;;;;;;;30.60;7.87;;;;;;;17.43;35.50;95719.22;4989341;28;20596;-73
2023/06/14 03:07:50;;;;;;;13.93;6.27;;;;;;;17.31;36.04;95720.22;4990101;28;20165;-72
2023/06/14 03:10:15;;;;;;;49.93;9.50;;;;;;;17.30;35.73;95718.56;4989185;28;20738;-72
2023/06/14 03:12:41;;;;;;;31.73;7.80;;;;;;;17.48;35.45;95717.06;4989018;28;20420;-73
2023/06/14 03:15:08;;;;;;;21.17;7.47;;;;;;;17.49;35.90;95721.38;4988934;28;20213;-73
2023/06/14 03:17:35;;;;;;;39.20;9.60;;;;;;;17.30;36.00;95721.19;4989074;28;20271;-72
2023/06/14 03:20:00;;;;;;;17.90;6.60;;;;;;;17.34;36.12;95725.31;4989880;28;20440;-72
2023/06/14 03:22:26;;;;;;;24.20;6.50;;;;;;;17.47;36.05;95725.97;4990529;28;20427;-73
2023/06/14 03:24:52;;;;;;;11.53;6.20;;;;;;;17.17;35.79;95724.00;4989758;28;20177;-73
2023/06/14 03:27:18;;;;;;;25.53;8.27;;;;;;;17.25;35.90;95732.19;4989200;28;20540;-73
2023/06/14 03:29:44;;;;;;;14.63;6.90;;;;;;;17.31;35.62;95730.84;4987870;28;20412;-72
2023/06/14 03:32:09;;;;;;;19.87;6.17;;;;;;;17.34;36.18;95730.59;4988617;28;20458;-72
2023/06/14 03:34:35;;;;;;;29.43;8.90;;;;;;;17.35;35.83;95735.75;4988549;28;20795;-71
2023/06/14 03:37:00;;;;;;;18.90;7.20;;;;;;;17.53;35.50;95732.59;4988522;28;20180;-72
2023/06/14 03:39:26;;;;;;;20.97;6.97;;;;;;;17.58;35.35;95724.25;4987541;28;20235;-72
2023/06/14 03:41:51;;;;;;;21.40;7.30;;;;;;;17.68;35.49;95738.44;4988960;28;20173;-73
2023/06/14 03:44:18;;;;;;;15.70;7.10;;;;;;;17.76;34.98;95733.31;4988626;28;20274;-72
2023/06/14 03:46:44;;;;;;;19.13;6.67;;;;;;;17.59;35.57;95729.41;4988902;28;20177;-72
2023/06/14 03:49:11;;;;;;;19.30;7.40;;;;;;;17.64;35.50;95732.53;4988415;28;20412;-71
2023/06/14 03:51:36;;;;;;;16.13;6.37;;;;;;;17.81;35.25;95728.53;4988382;28;20501;-73
2023/06/14 03:54:02;;;;;;;14.83;6.70;;;;;;;17.82;35.27;95740.81;4986871;28;20538;-73
2023/06/14 03:56:27;;;;;;;24.90;7.10;;;;;;;18.01;34.88;95740.09;4988569;28;20180;-71
2023/06/14 03:58:52;;;;;;;25.50;8.20;;;;;;;18.05;35.17;95740.69;4988055;28;20554;-71
2023/06/14 04:01:18;;;;;;;15.40;6.47;;;;;;;17.90;35.02;95745.47;4988327;28;20203;-73
2023/06/14 04:03:43;;;;;;;20.43;7.13;;;;;;;18.06;34.98;95753.00;4988033;28;20644;-71
2023/06/14 04:06:09;;;;;;;11.17;6.50;;;;;;;18.16;35.06;95752.06;4989862;28;20214;-72
2023/06/14 04:08:34;;;;;;;20.53;7.10;;;;;;;18.24;34.58;95748.78;4988214;28;20168;-73
2023/06/14 04:11:01;;;;;;;15.57;8.07;;;;;;;18.45;34.25;95748.78;4988842;28;20275;-70
2023/06/14 04:13:26;;;;;;;15.57;7.03;;;;;;;18.75;33.70;95755.88;4990692;28;20172;-74
2023/06/14 04:15:52;;;;;;;19.50;8.37;;;;;;;18.77;33.63;95756.63;4991773;28;20947;-71
2023/06/14 04:18:19;;;;;;;19.23;7.53;;;;;;;18.85;33.54;95755.13;5000687;28;20204;-71
2023/06/14 04:20:45;;;;;;;10.80;5.93;;;;;;;18.91;33.77;95757.25;5000672;28;20704;-73
2023/06/14 04:23:15;;;;;;;32.83;10.30;;;;;;;19.02;33.72;95768.63;5000024;28;20447;-74
2023/06/14 04:25:40;;;;;;;10.40;5.30;;;;;;;19.11;33.41;95772.31;4996712;28;20173;-72
2023/06/14 04:28:08;;;;;;;5.43;4.80;;;;;;;19.37;33.10;95764.69;4993953;28;20419;-73
2023/06/14 04:30:35;;;;;;;7.13;5.33;;;;;;;19.42;33.11;95767.75;4988444;28;20208;-72
2023/06/14 04:33:00;;;;;;;38.20;9.13;;;;;;;19.47;33.66;95767.34;4988039;28;20415;-70
2023/06/14 04:35:27;;;;;;;25.63;8.93;;;;;;;18.71;34.25;95765.13;4983669;28;20423;-69
2023/06/14 04:37:53;;;;;;;13.30;5.60;;;;;;;18.68;34.47;95770.69;4986913;28;20324;-69
2023/06/14 04:40:18;;;;;;;27.73;8.20;;;;;;;18.62;34.48;95773.91;4997340;28;20546;-70
2023/06/14 04:42:45;;;;;;;11.07;6.70;;;;;;;18.73;34.64;95780.94;4987389;28;20710;-74
2023/06/14 04:45:11;;;;;;;9.17;5.60;;;;;;;18.71;34.60;95782.88;4987277;28;20176;-70
2023/06/14 04:47:37;;;;;;;30.30;8.10;;;;;;;18.81;34.31;95781.97;4987909;28;20416;-71
2023/06/14 04:50:03;;;;;;;18.70;7.00;;;;;;;18.90;34.35;95784.81;4987420;28;20262;-70
2023/06/14 04:52:29;;;;;;;21.30;6.93;;;;;;;18.91;33.90;95776.72;4987360;28;20507;-71
2023/06/14 04:54:55;;;;;;;87.23;12.80;;;;;;;19.21;34.05;95791.78;4987587;28;20196;-71
2023/06/14 04:57:22;;;;;;;19.20;6.93;;;;;;;19.20;33.88;95798.06;4987639;28;20417;-71
2023/06/14 04:59:48;;;;;;;25.03;7.13;;;;;;;19.45;33.41;95801.25;4988529;28;20463;-71
2023/06/14 05:02:14;;;;;;;13.87;7.23;;;;;;;19.43;33.63;95806.69;4988383;28;20431;-72
2023/06/14 05:04:39;;;;;;;17.30;7.07;;;;;;;19.14;33.55;95803.94;4987987;28;20417;-71
2023/06/14 05:07:09;;;;;;;23.83;7.10;;;;;;;19.50;33.27;95803.50;4988368;28;20283;-71
2023/06/14 05:09:35;;;;;;;12.83;6.17;;;;;;;18.87;34.57;95801.03;4988410;28;20172;-71
2023/06/14 05:12:01;;;;;;;27.20;6.87;;;;;;;19.34;33.92;95804.00;4988509;28;20514;-70
2023/06/14 05:14:26;;;;;;;6.60;5.43;;;;;;;19.33;33.79;95803.16;4984782;28;21013;-70
2023/06/14 05:16:53;;;;;;;13.40;5.77;;;;;;;19.29;33.54;95807.06;4969145;28;20220;-69
2023/06/14 05:19:18;;;;;;;9.60;5.93;;;;;;;19.23;33.59;95803.16;4965997;28;20225;-72
2023/06/14 05:21:44;;;;;;;21.83;6.50;;;;;;;19.42;33.57;95809.50;4968163;28;20554;-71
2023/06/14 05:24:11;;;;;;;12.37;6.00;;;;;;;19.59;33.17;95800.84;4968562;28;20240;-70
2023/06/14 05:26:36;;;;;;;11.00;5.10;;;;;;;19.03;33.58;95806.69;4965323;28;20185;-68
2023/06/14 05:29:02;;;;;;;19.03;6.10;;;;;;;18.72;34.36;95804.00;4962049;28;20818;-69
2023/06/14 05:31:28;;;;;;;18.60;7.03;;;;;;;19.06;33.86;95808.25;4960570;28;20283;-68
2023/06/14 05:33:54;;;;;;;13.43;5.70;;;;;;;19.20;33.87;95802.56;4954496;28;20792;-69
2023/06/14 05:36:23;;;;;;;9.83;6.47;;;;;;;19.28;34.02;95815.22;4948320;28;20683;-68
2023/06/14 05:38:50;;;;;;;18.83;6.33;;;;;;;19.27;34.01;95816.16;4957411;28;20539;-69
2023/06/14 05:41:15;;;;;;;14.77;6.70;;;;;;;19.29;33.95;95817.72;4960532;28;20457;-70
2023/06/14 05:43:41;;;;;;;19.63;7.63;;;;;;;19.60;33.26;95815.00;4960460;28;20499;-71
2023/06/14 05:46:06;;;;;;;11.90;6.97;;;;;;;19.56;33.04;95810.91;4961530;28;20628;-70
2023/06/14 05:48:32;;;;;;;10.07;5.97;;;;;;;19.46;33.14;95818.88;4961264;28;20178;-74
2023/06/14 05:50:58;;;;;;;9.20;6.40;;;;;;;19.40;32.36;95816.78;4964971;28;20200;-70
2023/06/14 05:53:23;;;;;;;10.77;6.00;;;;;;;19.18;33.21;95816.00;4965669;28;20174;-72
2023/06/14 05:55:51;;;;;;;9.40;5.87;;;;;;;19.00;33.64;95822.94;4965050;28;20922;-72
2023/06/14 05:58:17;;;;;;;15.03;5.90;;;;;;;18.76;34.34;95815.22;4965720;28;20296;-71
2023/06/14 06:00:42;;;;;;;32.40;8.17;;;;;;;19.35;33.46;95817.19;4966410;28;20504;-72
2023/06/14 06:03:14;;;;;;;30.97;8.73;;;;;;;19.41;33.51;95821.09;4968619;28;20192;-71
2023/06/14 06:05:39;;;;;;;18.33;6.10;;;;;;;18.98;34.33;95830.19;4969987;28;20177;-70
2023/06/14 06:08:05;;;;;;;9.40;5.70;;;;;;;19.46;33.93;95824.19;4968904;28;20431;-72
2023/06/14 06:10:31;;;;;;;16.50;7.37;;;;;;;19.39;34.27;95834.56;4972644;28;20268;-72
2023/06/14 06:12:56;;;;;;;9.43;5.77;;;;;;;19.11;34.35;95828.16;4969783;28;20185;-72
2023/06/14 06:15:21;;;;;;;11.27;5.60;;;;;;;19.49;34.20;95837.25;4969742;28;20174;-68
2023/06/14 06:17:47;;;;;;;18.07;7.13;;;;;;;19.59;33.78;95835.44;4969379;28;20193;-72
2023/06/14 06:20:12;;;;;;;12.20;6.27;;;;;;;19.82;33.19;95824.59;4969470;28;20200;-70
2023/06/14 06:22:39;;;;;;;8.73;6.60;;;;;;;19.71;33.91;95832.72;4968940;28;20193;-71
2023/06/14 06:25:06;;;;;;;6.30;5.70;;;;;;;19.61;33.98;95833.50;4968679;28;20599;-71
2023/06/14 06:27:31;;;;;;;8.93;5.80;;;;;;;19.77;33.08;95833.00;4970362;28;20429;-70
2023/06/14 06:29:58;;;;;;;9.73;6.13;;;;;;;19.78;33.70;95833.84;4969658;28;21064;-71
2023/06/14 06:32:23;;;;;;;10.33;5.63;;;;;;;19.21;34.48;95831.69;4969460;28;20770;-72
2023/06/14 06:34:50;;;;;;;9.70;6.70;;;;;;;19.74;34.24;95832.44;4968451;28;20181;-73
2023/06/14 06:37:15;;;;;;;14.40;7.43;;;;;;;19.89;34.03;95831.06;4969134;28;20911;-72
2023/06/14 06:39:40;;;;;;;28.63;7.83;;;;;;;20.24;33.52;95835.81;4969289;28;20571;-70
2023/06/14 06:42:06;;;;;;;31.03;7.23;;;;;;;19.76;33.67;95841.97;4971330;28;20188;-72
2023/06/14 06:44:32;;;;;;;15.20;6.20;;;;;;;19.87;34.21;95843.66;4971312;28;20178;-73
2023/06/14 06:46:58;;;;;;;10.83;6.30;;;;;;;20.29;33.62;95836.25;4971039;28;20196;-72
2023/06/14 06:49:23;;;;;;;11.57;5.73;;;;;;;20.76;32.83;95838.16;4969974;28;20446;-72
2023/06/14 06:52:04;;;;;;;7.63;5.73;;;;;;;20.76;32.70;95848.84;4970408;28;20301;-72
2023/06/14 06:54:29;;;;;;;6.13;5.53;;;;;;;20.19;33.74;95848.72;4970684;28;20331;-71
2023/06/14 06:56:55;;;;;;;7.30;5.53;;;;;;;20.37;33.80;95845.38;4970486;28;20507;-70
2023/06/14 06:59:21;;;;;;;10.87;6.63;;;;;;;20.99;32.81;95853.84;4971132;28;20197;-72
2023/06/14 07:01:46;;;;;;;7.50;5.90;;;;;;;20.70;32.97;95852.91;4971404;28;20209;-69
2023/06/14 07:04:13;;;;;;;8.57;5.50;;;;;;;20.08;34.46;95849.72;4971523;28;20436;-70
2023/06/14 07:06:38;;;;;;;13.27;6.77;;;;;;;20.40;34.28;95855.72;4970993;28;20260;-71
2023/06/14 07:09:06;;;;;;;8.37;5.97;;;;;;;19.86;34.60;95858.78;4971150;28;20405;-72
2023/06/14 07:11:31;;;;;;;16.43;6.20;;;;;;;20.39;33.89;95857.56;4970339;28;20197;-72
2023/06/14 07:13:57;;;;;;;19.30;6.30;;;;;;;20.57;34.18;95859.53;4968314;28;20449;-70
2023/06/14 07:16:23;;;;;;;9.23;6.57;;;;;;;20.45;34.01;95861.47;4983851;28;20190;-72
2023/06/14 07:18:48;;;;;;;9.10;5.57;;;;;;;20.73;33.87;95879.28;4966320;28;20288;-73
2023/06/14 07:21:14;;;;;;;9.47;6.67;;;;;;;20.75;33.98;95870.31;4970281;28;20645;-73
2023/06/14 07:23:39;;;;;;;23.53;8.53;;;;;;;20.54;34.25;95871.28;4970437;28;20239;-72
2023/06/14 07:26:05;;;;;;;12.10;6.20;;;;;;;20.15;35.22;95879.31;4971462;28;20178;-73
2023/06/14 07:28:30;;;;;;;8.30;6.17;;;;;;;20.36;34.73;95872.97;4968454;28;20192;-73
2023/06/14 07:30:56;;;;;;;10.47;5.87;;;;;;;19.99;35.37;95879.00;4960644;28;20217;-74
2023/06/14 07:33:21;;;;;;;10.20;6.90;;;;;;;19.65;36.20;95877.50;4975075;28;20347;-70
2023/06/14 07:35:47;;;;;;;8.73;6.43;;;;;;;19.93;36.08;95887.53;4990961;28;20186;-69
2023/06/14 07:38:13;;;;;;;7.40;5.60;;;;;;;19.78;36.14;95887.09;4976753;28;20674;-72
2023/06/14 07:40:38;;;;;;;11.93;6.60;;;;;;;20.25;35.27;95888.13;4969852;28;20464;-72
2023/06/14 07:43:04;;;;;;;8.13;6.93;;;;;;;20.01;35.69;95887.69;4956635;28;20174;-73
2023/06/14 07:45:29;;;;;;;8.23;5.83;;;;;;;21.02;33.94;95882.88;4973566;28;20208;-72
2023/06/14 07:47:55;;;;;;;6.73;5.27;;;;;;;21.09;33.87;95882.16;4967811;28;20174;-72
2023/06/14 07:50:20;;;;;;;12.00;6.23;;;;;;;21.48;32.24;95874.06;4997100;28;20202;-71
2023/06/14 07:52:46;;;;;;;10.13;5.80;;;;;;;21.49;32.19;95881.06;4958688;28;20186;-73
2023/06/14 07:55:12;;;;;;;13.70;6.73;;;;;;;21.62;32.51;95879.91;4968754;28;20268;-72
2023/06/14 07:57:38;;;;;;;17.67;6.50;;;;;;;21.69;32.45;95883.66;4967145;28;20519;-74
2023/06/14 08:00:06;;;;;;;33.17;10.03;;;;;;;21.76;32.26;95879.41;4965938;28;20198;-72
2023/06/14 08:02:32;;;;;;;15.63;7.00;;;;;;;21.41;32.70;95891.66;4961554;28;20206;-72
2023/06/14 08:04:58;;;;;;;12.30;6.67;;;;;;;21.50;32.68;95890.78;4958381;28;20433;-71
2023/06/14 08:07:24;;;;;;;8.73;6.23;;;;;;;21.49;33.16;95888.22;4965882;28;20178;-73
2023/06/14 08:09:49;;;;;;;12.97;6.23;;;;;;;22.39;32.05;95883.91;4971419;28;20459;-71
2023/06/14 08:12:15;;;;;;;16.90;6.73;;;;;;;22.91;31.76;95875.13;4963689;28;20652;-70
2023/06/14 08:14:42;;;;;;;18.10;6.97;;;;;;;23.12;31.60;95881.00;4981344;28;20188;-72
2023/06/14 08:17:07;;;;;;;8.43;5.73;;;;;;;23.01;31.28;95875.94;4961137;28;20186;-72
2023/06/14 08:19:33;;;;;;;16.10;6.40;;;;;;;23.12;30.56;95872.97;4967511;28;20479;-72
2023/06/14 08:21:58;;;;;;;9.47;5.83;;;;;;;22.71;31.69;95875.34;4971900;28;20779;-72
2023/06/14 08:24:24;;;;;;;14.93;5.87;;;;;;;22.74;31.40;95874.19;4966468;28;20193;-74
2023/06/14 08:26:50;;;;;;;21.67;6.90;;;;;;;22.74;30.90;95882.22;4965537;28;20185;-72
2023/06/14 08:29:15;;;;;;;14.80;6.57;;;;;;;22.02;31.71;95889.38;4961515;28;20260;-71
2023/06/14 08:31:41;;;;;;;10.97;6.50;;;;;;;22.40;31.40;95891.78;4964207;28;20453;-71
2023/06/14 08:34:06;;;;;;;8.40;5.80;;;;;;;22.35;32.02;95883.41;4961278;28;20178;-73
2023/06/14 08:36:32;;;;;;;9.37;5.93;;;;;;;22.33;32.71;95895.22;4969524;28;20181;-71
2023/06/14 08:38:57;;;;;;;8.00;6.23;;;;;;;22.26;32.04;95886.97;4963216;28;20205;-71
2023/06/14 08:41:24;;;;;;;28.40;7.70;;;;;;;22.41;30.81;95888.09;4956778;28;20245;-71
2023/06/14 08:43:50;;;;;;;6.43;5.70;;;;;;;22.61;31.24;95888.81;4958916;28;20193;-71
2023/06/14 08:46:19;;;;;;;8.90;5.57;;;;;;;22.96;30.00;95894.25;4962100;28;20441;-73
2023/06/14 08:48:48;;;;;;;7.00;5.50;;;;;;;22.65;30.20;95889.31;4967881;28;20540;-72
2023/06/14 08:51:15;;;;;;;18.57;5.63;;;;;;;23.43;29.06;95886.72;4960320;28;20457;-72
2023/06/14 08:53:42;;;;;;;36.60;8.20;;;;;;;23.63;29.43;95886.47;4954370;28;20430;-72
2023/06/14 08:56:13;;;;;;;17.33;7.30;;;;;;;23.67;29.28;95885.16;4967920;28;20444;-72
2023/06/14 08:58:44;;;;;;;11.20;6.30;;;;;;;24.13;28.56;95879.47;4964747;28;20587;-71
2023/06/14 09:01:16;;;;;;;10.50;6.17;;;;;;;23.97;27.94;95882.94;4965589;28;20483;-72
2023/06/14 09:03:42;;;;;;;12.77;5.53;;;;;;;24.11;28.47;95879.63;4958016;28;20493;-71
2023/06/14 09:06:13;;;;;;;13.67;6.73;;;;;;;24.57;28.13;95879.22;4961900;28;20517;-73
2023/06/14 09:08:47;;;;;;;7.33;5.67;;;;;;;23.09;28.26;95885.84;4964247;28;20787;-72
2023/06/14 09:11:14;;;;;;;16.00;6.10;;;;;;;23.52;29.02;95886.75;4963374;28;21246;-71
2023/06/14 09:13:40;;;;;;;12.90;4.77;;;;;;;23.82;28.22;95880.88;4978938;28;20449;-74
2023/06/14 09:16:06;;;;;;;10.70;5.30;;;;;;;23.81;27.73;95881.03;4959791;28;20475;-74
2023/06/14 09:18:40;;;;;;;15.70;6.80;;;;;;;23.71;28.41;95883.81;4969485;28;20543;-71
2023/06/14 09:21:07;;;;;;;10.43;5.00;;;;;;;23.76;28.37;95883.38;4964655;28;20536;-71
2023/06/14 09:23:40;;;;;;;8.00;5.30;;;;;;;24.48;27.64;95884.59;4970694;28;20528;-71
2023/06/14 09:26:16;;;;;;;46.87;8.70;;;;;;;24.53;26.80;95886.78;4963556;28;20840;-71
2023/06/14 09:28:49;;;;;;;15.57;5.53;;;;;;;24.08;27.76;95894.19;4958158;28;20890;-73
2023/06/14 09:31:17;;;;;;;12.33;4.70;;;;;;;24.00;28.81;95888.81;4966801;28;20472;-71
2023/06/14 09:33:50;;;;;;;15.30;4.70;;;;;;;24.45;27.35;95894.75;4964532;28;20805;-73
2023/06/14 09:36:22;;;;;;;6.07;5.47;;;;;;;24.03;27.95;95887.66;4960660;28;20439;-72
2023/06/14 09:39:08;;;;;;;9.97;5.83;;;;;;;24.11;27.11;95892.19;4963350;28;20473;-70
2023/06/14 09:41:40;;;;;;;7.83;4.67;;;;;;;23.34;26.67;95897.53;4962244;28;20507;-72
2023/06/14 09:44:08;;;;;;;7.40;4.93;;;;;;;23.70;26.62;95889.34;4962219;28;20445;-72
2023/06/14 09:46:35;;;;;;;11.50;5.50;;;;;;;23.47;26.26;95895.25;4969726;28;20504;-72
2023/06/14 09:49:02;;;;;;;10.43;4.37;;;;;;;23.27;26.29;95897.34;4962367;28;20440;-72
2023/06/14 09:51:30;;;;;;;5.73;4.37;;;;;;;23.15;26.29;95893.22;4958233;28;21005;-70
2023/06/14 09:54:00;;;;;;;11.20;6.00;;;;;;;23.64;25.97;95890.81;4957369;28;20440;-72
2023/06/14 09:56:30;;;;;;;14.97;4.97;;;;;;;24.16;25.24;95887.19;4967897;28;20437;-72
2023/06/14 09:58:58;;;;;;;7.87;4.73;;;;;;;23.75;25.57;95893.25;5002084;28;20473;-71
2023/06/14 10:01:30;;;;;;;4.90;4.33;;;;;;;23.09;25.51;95902.75;4964188;28;20452;-73
2023/06/14 10:04:02;;;;;;;5.47;4.83;;;;;;;23.25;26.29;95897.50;4967470;28;20438;-72
2023/06/14 10:06:29;;;;;;;56.53;8.33;;;;;;;23.70;25.65;95889.34;4970464;28;20443;-71
2023/06/14 10:08:57;;;;;;;10.50;4.80;;;;;;;23.72;25.13;95888.19;4966885;28;20523;-71
2023/06/14 10:11:23;;;;;;;12.10;5.37;;;;;;;24.17;25.19;95881.66;4965863;28;20460;-71
2023/06/14 10:13:50;;;;;;;9.73;4.83;;;;;;;23.71;25.31;95886.50;4977387;28;20873;-71
2023/06/14 10:16:39;;;;;;;14.00;5.17;;;;;;;23.71;26.08;95891.84;4974524;28;20443;-71
2023/06/14 10:19:22;;;;;;;6.53;4.30;;;;;;;23.80;26.08;95885.56;4975053;28;20483;-72
2023/06/14 10:22:09;;;;;;;14.27;5.07;;;;;;;24.45;25.57;95884.03;4989310;28;20971;-72
2023/06/14 10:24:41;;;;;;;4.93;4.00;;;;;;;24.00;25.29;95885.28;4988015;28;20428;-71
2023/06/14 10:27:11;;;;;;;5.33;4.67;;;;;;;24.11;25.23;95881.47;4991217;28;20455;-70
2023/06/14 10:30:07;;;;;;;5.07;4.57;;;;;;;23.66;25.43;95876.25;4989987;28;20445;-71
2023/06/14 10:32:33;;;;;;;8.30;4.23;;;;;;;23.54;25.56;95880.22;4983872;28;20530;-70
2023/06/14 10:35:00;;;;;;;5.20;4.43;;;;;;;22.97;26.79;95882.56;4986393;28;20924;-73
2023/06/14 10:37:26;;;;;;;4.43;4.03;;;;;;;23.04;27.01;95873.75;4975257;28;20235;-72
2023/06/14 10:39:51;;;;;;;9.37;5.10;;;;;;;23.47;26.68;95887.22;5018192;28;20467;-71
2023/06/14 10:42:17;;;;;;;18.63;5.40;;;;;;;23.66;26.41;95878.94;4981602;28;20185;-72
2023/06/14 10:44:43;;;;;;;7.27;5.00;;;;;;;23.49;25.71;95887.91;4985924;28;20185;-73
2023/06/14 10:47:48;;;;;;;9.13;4.80;;;;;;;23.09;25.63;95875.13;4979801;28;20871;-72
2023/06/14 10:50:16;;;;;;;7.10;4.93;;;;;;;23.12;25.35;95872.13;4992473;28;20467;-71
2023/06/14 10:52:43;;;;;;;7.50;4.50;;;;;;;23.44;25.46;95875.00;4981702;28;20431;-71
2023/06/14 10:55:14;;;;;;;7.53;4.43;;;;;;;23.88;25.67;95866.84;4993320;28;20523;-71
2023/06/14 10:57:55;;;;;;;6.37;4.57;;;;;;;24.00;25.79;95871.88;4983888;28;20432;-72
2023/06/14 11:00:24;;;;;;;6.50;4.07;;;;;;;23.70;25.98;95871.44;4984342;28;20451;-71
2023/06/14 11:02:58;;;;;;;10.20;5.73;;;;;;;23.42;25.51;95877.00;4982697;28;20448;-71
2023/06/14 11:05:28;;;;;;;8.13;4.63;;;;;;;23.34;25.64;95885.00;4986027;28;20545;-72
2023/06/14 11:08:32;;;;;;;5.90;5.00;;;;;;;23.59;25.58;95877.91;4983931;28;20436;-72
2023/06/14 11:11:05;;;;;;;9.23;5.13;;;;;;;23.83;24.71;95871.00;4995711;28;20459;-72
2023/06/14 11:13:31;;;;;;;21.47;5.40;;;;;;;24.10;24.44;95877.97;4996135;28;20428;-73
2023/06/14 11:15:57;;;;;;;13.60;5.27;;;;;;;24.05;24.72;95873.09;4994849;28;20436;-71
2023/06/14 11:18:27;;;;;;;5.50;4.67;;;;;;;23.70;25.37;95878.63;4972864;28;20201;-72
2023/06/14 11:20:53;;;;;;;10.30;5.63;;;;;;;23.65;25.84;95879.97;4984951;28;20533;-71
2023/06/14 11:23:18;;;;;;;7.67;4.70;;;;;;;23.67;25.54;95871.78;4990609;28;20527;-72
2023/06/14 11:25:49;;;;;;;7.27;4.90;;;;;;;23.85;25.22;95872.50;4980369;28;20789;-69
2023/06/14 11:28:14;;;;;;;7.73;4.90;;;;;;;24.13;25.38;95874.94;4987359;28;20557;-72
2023/06/14 11:30:40;;;;;;;11.90;4.97;;;;;;;24.28;24.80;95872.44;4983215;28;20475;-72